sensor_id;sensor_type;location;lat;lon;timestamp;P1;durP1;ratioP1;P2;durP2;ratioP2
54167;SDS011;68429;50.958;3.592;2024-01-30T00:01:15;7.53;;;5.10;;
54167;SDS011;68429;50.958;3.592;2024-01-30T00:03:40;7.88;;;4.97;;
54167;SDS011;68429;50.958;3.592;2024-01-30T00:06:06;8.50;;;4.93;;
54167;SDS011;68429;50.958;3.592;2024-01-30T00:08:33;8.35;;;5.45;;
54167;SDS011;68429;50.958;3.592;2024-01-30T00:10:58;10.48;;;5.45;;
54167;SDS011;68429;50.958;3.592;2024-01-30T00:13:24;12.45;;;5.40;;
54167;SDS011;68429;50.958;3.592;2024-01-30T00:15:50;10.98;;;4.93;;
54167;SDS011;68429;50.958;3.592;2024-01-30T00:18:15;9.32;;;5.15;;
54167;SDS011;68429;50.958;3.592;2024-01-30T00:20:41;9.73;;;5.40;;
54167;SDS011;68429;50.958;3.592;2024-01-30T00:23:08;8.35;;;5.18;;
54167;SDS011;68429;50.958;3.592;2024-01-30T00:25:33;10.25;;;4.88;;
54167;SDS011;68429;50.958;3.592;2024-01-30T00:27:59;11.25;;;5.40;;
54167;SDS011;68429;50.958;3.592;2024-01-30T00:30:25;10.18;;;5.55;;
54167;SDS011;68429;50.958;3.592;2024-01-30T00:32:51;9.13;;;5.47;;
54167;SDS011;68429;50.958;3.592;2024-01-30T00:35:16;8.65;;;5.38;;
54167;SDS011;68429;50.958;3.592;2024-01-30T00:37:42;10.38;;;5.60;;
54167;SDS011;68429;50.958;3.592;2024-01-30T00:40:08;10.85;;;5.38;;
54167;SDS011;68429;50.958;3.592;2024-01-30T00:42:40;9.95;;;5.13;;
54167;SDS011;68429;50.958;3.592;2024-01-30T00:45:14;7.70;;;5.60;;
54167;SDS011;68429;50.958;3.592;2024-01-30T00:47:41;9.15;;;5.47;;
54167;SDS011;68429;50.958;3.592;2024-01-30T00:50:07;10.30;;;5.60;;
54167;SDS011;68429;50.958;3.592;2024-01-30T00:52:33;9.20;;;5.80;;
54167;SDS011;68429;50.958;3.592;2024-01-30T00:54:59;6.45;;;5.40;;
54167;SDS011;68429;50.958;3.592;2024-01-30T00:57:25;13.77;;;5.60;;
54167;SDS011;68429;50.958;3.592;2024-01-30T00:59:52;9.45;;;6.13;;
54167;SDS011;68429;50.958;3.592;2024-01-30T01:02:17;10.13;;;5.72;;
54167;SDS011;68429;50.958;3.592;2024-01-30T01:04:43;8.07;;;5.57;;
54167;SDS011;68429;50.958;3.592;2024-01-30T01:07:10;9.90;;;5.35;;
54167;SDS011;68429;50.958;3.592;2024-01-30T01:09:36;6.72;;;5.32;;
54167;SDS011;68429;50.958;3.592;2024-01-30T01:12:02;9.18;;;5.72;;
54167;SDS011;68429;50.958;3.592;2024-01-30T01:14:28;9.20;;;5.85;;
54167;SDS011;68429;50.958;3.592;2024-01-30T01:16:54;10.20;;;6.05;;
54167;SDS011;68429;50.958;3.592;2024-01-30T01:19:20;7.88;;;4.97;;
54167;SDS011;68429;50.958;3.592;2024-01-30T01:21:46;9.77;;;5.90;;
54167;SDS011;68429;50.958;3.592;2024-01-30T01:24:12;10.50;;;5.93;;
54167;SDS011;68429;50.958;3.592;2024-01-30T01:26:38;9.68;;;5.63;;
54167;SDS011;68429;50.958;3.592;2024-01-30T01:29:03;7.30;;;5.35;;
54167;SDS011;68429;50.958;3.592;2024-01-30T01:31:35;6.45;;;5.18;;
54167;SDS011;68429;50.958;3.592;2024-01-30T01:34:05;9.63;;;5.45;;
54167;SDS011;68429;50.958;3.592;2024-01-30T01:36:31;6.28;;;4.70;;
54167;SDS011;68429;50.958;3.592;2024-01-30T01:38:56;8.73;;;4.95;;
54167;SDS011;68429;50.958;3.592;2024-01-30T01:41:22;8.82;;;5.22;;
54167;SDS011;68429;50.958;3.592;2024-01-30T01:43:48;8.20;;;4.50;;
54167;SDS011;68429;50.958;3.592;2024-01-30T01:46:13;8.10;;;5.05;;
54167;SDS011;68429;50.958;3.592;2024-01-30T01:48:41;11.38;;;5.75;;
54167;SDS011;68429;50.958;3.592;2024-01-30T01:51:08;6.35;;;5.18;;
54167;SDS011;68429;50.958;3.592;2024-01-30T01:53:34;8.02;;;5.50;;
54167;SDS011;68429;50.958;3.592;2024-01-30T01:56:00;9.57;;;5.47;;
54167;SDS011;68429;50.958;3.592;2024-01-30T01:58:26;8.57;;;5.90;;
54167;SDS011;68429;50.958;3.592;2024-01-30T02:00:56;11.00;;;5.43;;
54167;SDS011;68429;50.958;3.592;2024-01-30T02:03:23;13.27;;;5.60;;
54167;SDS011;68429;50.958;3.592;2024-01-30T02:05:50;9.65;;;5.78;;
54167;SDS011;68429;50.958;3.592;2024-01-30T02:08:16;14.70;;;5.70;;
54167;SDS011;68429;50.958;3.592;2024-01-30T02:10:42;14.05;;;6.47;;
54167;SDS011;68429;50.958;3.592;2024-01-30T02:13:08;9.82;;;6.88;;
54167;SDS011;68429;50.958;3.592;2024-01-30T02:15:33;10.98;;;5.82;;
54167;SDS011;68429;50.958;3.592;2024-01-30T02:17:59;9.90;;;5.78;;
54167;SDS011;68429;50.958;3.592;2024-01-30T02:20:25;10.52;;;5.60;;
54167;SDS011;68429;50.958;3.592;2024-01-30T02:22:54;7.90;;;5.55;;
54167;SDS011;68429;50.958;3.592;2024-01-30T02:25:29;8.38;;;5.43;;
54167;SDS011;68429;50.958;3.592;2024-01-30T02:27:58;8.90;;;5.28;;
54167;SDS011;68429;50.958;3.592;2024-01-30T02:30:24;11.35;;;6.05;;
54167;SDS011;68429;50.958;3.592;2024-01-30T02:32:50;8.02;;;5.95;;
54167;SDS011;68429;50.958;3.592;2024-01-30T02:35:15;10.02;;;5.72;;
54167;SDS011;68429;50.958;3.592;2024-01-30T02:37:41;12.15;;;5.45;;
54167;SDS011;68429;50.958;3.592;2024-01-30T02:40:07;10.10;;;5.82;;
54167;SDS011;68429;50.958;3.592;2024-01-30T02:42:32;9.50;;;5.68;;
54167;SDS011;68429;50.958;3.592;2024-01-30T02:44:58;9.02;;;5.43;;
54167;SDS011;68429;50.958;3.592;2024-01-30T02:47:24;12.82;;;5.82;;
54167;SDS011;68429;50.958;3.592;2024-01-30T02:49:50;9.23;;;5.65;;
54167;SDS011;68429;50.958;3.592;2024-01-30T02:52:16;8.30;;;5.93;;
54167;SDS011;68429;50.958;3.592;2024-01-30T02:54:41;8.63;;;5.75;;
54167;SDS011;68429;50.958;3.592;2024-01-30T02:57:07;10.60;;;6.55;;
54167;SDS011;68429;50.958;3.592;2024-01-30T02:59:33;8.50;;;5.75;;
54167;SDS011;68429;50.958;3.592;2024-01-30T03:02:00;11.35;;;6.28;;
54167;SDS011;68429;50.958;3.592;2024-01-30T03:04:26;8.82;;;5.80;;
54167;SDS011;68429;50.958;3.592;2024-01-30T03:06:52;8.00;;;6.07;;
54167;SDS011;68429;50.958;3.592;2024-01-30T03:09:18;9.07;;;6.50;;
54167;SDS011;68429;50.958;3.592;2024-01-30T03:11:43;8.60;;;6.15;;
54167;SDS011;68429;50.958;3.592;2024-01-30T03:14:09;8.73;;;5.80;;
54167;SDS011;68429;50.958;3.592;2024-01-30T03:16:37;11.80;;;6.00;;
54167;SDS011;68429;50.958;3.592;2024-01-30T03:19:04;9.85;;;6.05;;
54167;SDS011;68429;50.958;3.592;2024-01-30T03:21:32;8.02;;;6.50;;
54167;SDS011;68429;50.958;3.592;2024-01-30T03:23:58;11.40;;;6.63;;
54167;SDS011;68429;50.958;3.592;2024-01-30T03:26:24;10.77;;;6.00;;
54167;SDS011;68429;50.958;3.592;2024-01-30T03:28:50;11.38;;;6.07;;
54167;SDS011;68429;50.958;3.592;2024-01-30T03:31:16;8.07;;;6.43;;
54167;SDS011;68429;50.958;3.592;2024-01-30T03:33:42;10.73;;;6.63;;
54167;SDS011;68429;50.958;3.592;2024-01-30T03:36:08;8.80;;;5.80;;
54167;SDS011;68429;50.958;3.592;2024-01-30T03:38:34;10.68;;;5.80;;
54167;SDS011;68429;50.958;3.592;2024-01-30T03:41:00;8.07;;;6.45;;
54167;SDS011;68429;50.958;3.592;2024-01-30T03:43:26;8.95;;;5.75;;
54167;SDS011;68429;50.958;3.592;2024-01-30T03:45:52;10.65;;;7.05;;
54167;SDS011;68429;50.958;3.592;2024-01-30T03:48:18;8.10;;;6.22;;
54167;SDS011;68429;50.958;3.592;2024-01-30T03:50:45;8.20;;;6.28;;
54167;SDS011;68429;50.958;3.592;2024-01-30T03:53:10;10.98;;;6.38;;
54167;SDS011;68429;50.958;3.592;2024-01-30T03:55:36;10.20;;;6.95;;
54167;SDS011;68429;50.958;3.592;2024-01-30T03:58:02;15.43;;;7.32;;
54167;SDS011;68429;50.958;3.592;2024-01-30T04:00:27;8.60;;;5.93;;
54167;SDS011;68429;50.958;3.592;2024-01-30T04:02:53;11.43;;;6.43;;
54167;SDS011;68429;50.958;3.592;2024-01-30T04:05:19;13.90;;;6.10;;
54167;SDS011;68429;50.958;3.592;2024-01-30T04:07:44;8.75;;;6.53;;
54167;SDS011;68429;50.958;3.592;2024-01-30T04:10:10;12.48;;;6.85;;
54167;SDS011;68429;50.958;3.592;2024-01-30T04:12:36;10.43;;;6.68;;
54167;SDS011;68429;50.958;3.592;2024-01-30T04:15:01;10.07;;;6.18;;
54167;SDS011;68429;50.958;3.592;2024-01-30T04:17:28;7.53;;;6.35;;
54167;SDS011;68429;50.958;3.592;2024-01-30T04:19:54;9.50;;;6.47;;
54167;SDS011;68429;50.958;3.592;2024-01-30T04:22:20;8.93;;;6.47;;
54167;SDS011;68429;50.958;3.592;2024-01-30T04:24:46;10.98;;;6.80;;
54167;SDS011;68429;50.958;3.592;2024-01-30T04:27:12;8.77;;;6.50;;
54167;SDS011;68429;50.958;3.592;2024-01-30T04:29:37;9.00;;;6.30;;
54167;SDS011;68429;50.958;3.592;2024-01-30T04:32:03;13.73;;;6.88;;
54167;SDS011;68429;50.958;3.592;2024-01-30T04:34:29;11.20;;;6.45;;
54167;SDS011;68429;50.958;3.592;2024-01-30T04:36:55;10.10;;;6.60;;
54167;SDS011;68429;50.958;3.592;2024-01-30T04:39:21;10.10;;;6.50;;
54167;SDS011;68429;50.958;3.592;2024-01-30T04:41:46;12.13;;;6.50;;
54167;SDS011;68429;50.958;3.592;2024-01-30T04:44:13;11.40;;;6.47;;
54167;SDS011;68429;50.958;3.592;2024-01-30T04:46:39;8.88;;;5.80;;
54167;SDS011;68429;50.958;3.592;2024-01-30T04:49:05;8.48;;;6.55;;
54167;SDS011;68429;50.958;3.592;2024-01-30T04:51:32;11.75;;;7.18;;
54167;SDS011;68429;50.958;3.592;2024-01-30T04:53:58;10.02;;;6.82;;
54167;SDS011;68429;50.958;3.592;2024-01-30T04:56:24;15.93;;;6.53;;
54167;SDS011;68429;50.958;3.592;2024-01-30T04:58:49;7.97;;;6.22;;
54167;SDS011;68429;50.958;3.592;2024-01-30T05:01:15;8.82;;;6.20;;
54167;SDS011;68429;50.958;3.592;2024-01-30T05:03:41;14.70;;;6.25;;
54167;SDS011;68429;50.958;3.592;2024-01-30T05:06:07;10.68;;;7.20;;
54167;SDS011;68429;50.958;3.592;2024-01-30T05:08:33;9.95;;;6.97;;
54167;SDS011;68429;50.958;3.592;2024-01-30T05:11:01;9.10;;;7.10;;
54167;SDS011;68429;50.958;3.592;2024-01-30T05:13:29;11.20;;;6.82;;
54167;SDS011;68429;50.958;3.592;2024-01-30T05:15:55;9.48;;;6.30;;
54167;SDS011;68429;50.958;3.592;2024-01-30T05:18:21;10.25;;;6.65;;
54167;SDS011;68429;50.958;3.592;2024-01-30T05:20:47;11.98;;;6.45;;
54167;SDS011;68429;50.958;3.592;2024-01-30T05:23:12;12.93;;;7.20;;
54167;SDS011;68429;50.958;3.592;2024-01-30T05:25:38;10.90;;;6.38;;
54167;SDS011;68429;50.958;3.592;2024-01-30T05:28:04;16.23;;;6.75;;
54167;SDS011;68429;50.958;3.592;2024-01-30T05:30:30;16.05;;;6.78;;
54167;SDS011;68429;50.958;3.592;2024-01-30T05:32:55;11.82;;;5.95;;
54167;SDS011;68429;50.958;3.592;2024-01-30T05:35:21;13.18;;;6.53;;
54167;SDS011;68429;50.958;3.592;2024-01-30T05:37:47;12.70;;;6.82;;
54167;SDS011;68429;50.958;3.592;2024-01-30T05:40:14;8.77;;;6.28;;
54167;SDS011;68429;50.958;3.592;2024-01-30T05:42:40;11.15;;;5.75;;
54167;SDS011;68429;50.958;3.592;2024-01-30T05:45:06;14.07;;;6.70;;
54167;SDS011;68429;50.958;3.592;2024-01-30T05:47:31;13.05;;;7.10;;
54167;SDS011;68429;50.958;3.592;2024-01-30T05:49:57;13.15;;;5.88;;
54167;SDS011;68429;50.958;3.592;2024-01-30T05:52:23;10.55;;;6.60;;
54167;SDS011;68429;50.958;3.592;2024-01-30T05:54:48;10.65;;;6.45;;
54167;SDS011;68429;50.958;3.592;2024-01-30T05:57:14;11.43;;;6.53;;
54167;SDS011;68429;50.958;3.592;2024-01-30T05:59:40;20.70;;;6.93;;
54167;SDS011;68429;50.958;3.592;2024-01-30T06:02:05;11.57;;;6.85;;
54167;SDS011;68429;50.958;3.592;2024-01-30T06:04:31;12.73;;;6.93;;
54167;SDS011;68429;50.958;3.592;2024-01-30T06:06:56;11.93;;;6.22;;
54167;SDS011;68429;50.958;3.592;2024-01-30T06:09:22;10.00;;;6.43;;
54167;SDS011;68429;50.958;3.592;2024-01-30T06:11:48;10.07;;;5.80;;
54167;SDS011;68429;50.958;3.592;2024-01-30T06:14:13;12.38;;;6.20;;
54167;SDS011;68429;50.958;3.592;2024-01-30T06:16:39;10.40;;;6.57;;
54167;SDS011;68429;50.958;3.592;2024-01-30T06:19:05;12.10;;;5.97;;
54167;SDS011;68429;50.958;3.592;2024-01-30T06:21:31;15.35;;;5.88;;
54167;SDS011;68429;50.958;3.592;2024-01-30T06:23:57;10.63;;;5.65;;
54167;SDS011;68429;50.958;3.592;2024-01-30T06:26:23;12.80;;;6.57;;
54167;SDS011;68429;50.958;3.592;2024-01-30T06:28:48;8.27;;;5.78;;
54167;SDS011;68429;50.958;3.592;2024-01-30T06:31:14;13.32;;;6.47;;
54167;SDS011;68429;50.958;3.592;2024-01-30T06:33:39;11.07;;;6.75;;
54167;SDS011;68429;50.958;3.592;2024-01-30T06:36:07;11.50;;;6.40;;
54167;SDS011;68429;50.958;3.592;2024-01-30T06:38:33;10.40;;;6.05;;
54167;SDS011;68429;50.958;3.592;2024-01-30T06:40:58;11.48;;;5.57;;
54167;SDS011;68429;50.958;3.592;2024-01-30T06:43:24;7.88;;;5.50;;
54167;SDS011;68429;50.958;3.592;2024-01-30T06:45:49;7.85;;;5.38;;
54167;SDS011;68429;50.958;3.592;2024-01-30T06:48:16;10.73;;;6.00;;
54167;SDS011;68429;50.958;3.592;2024-01-30T06:50:42;9.40;;;5.60;;
54167;SDS011;68429;50.958;3.592;2024-01-30T06:53:08;10.65;;;6.40;;
54167;SDS011;68429;50.958;3.592;2024-01-30T06:55:33;10.35;;;5.90;;
54167;SDS011;68429;50.958;3.592;2024-01-30T06:57:59;10.73;;;6.18;;
54167;SDS011;68429;50.958;3.592;2024-01-30T07:00:28;11.02;;;6.57;;
54167;SDS011;68429;50.958;3.592;2024-01-30T07:02:54;11.90;;;6.38;;
54167;SDS011;68429;50.958;3.592;2024-01-30T07:05:19;9.02;;;6.00;;
54167;SDS011;68429;50.958;3.592;2024-01-30T07:07:46;10.95;;;6.07;;
54167;SDS011;68429;50.958;3.592;2024-01-30T07:10:12;9.38;;;5.75;;
54167;SDS011;68429;50.958;3.592;2024-01-30T07:12:38;13.30;;;6.70;;
54167;SDS011;68429;50.958;3.592;2024-01-30T07:15:04;9.88;;;5.65;;
54167;SDS011;68429;50.958;3.592;2024-01-30T07:17:33;15.60;;;6.80;;
54167;SDS011;68429;50.958;3.592;2024-01-30T07:19:59;9.48;;;5.70;;
54167;SDS011;68429;50.958;3.592;2024-01-30T07:22:24;12.85;;;5.90;;
54167;SDS011;68429;50.958;3.592;2024-01-30T07:24:50;11.73;;;6.82;;
54167;SDS011;68429;50.958;3.592;2024-01-30T07:27:17;10.13;;;5.95;;
54167;SDS011;68429;50.958;3.592;2024-01-30T07:29:43;18.42;;;8.70;;
54167;SDS011;68429;50.958;3.592;2024-01-30T07:32:09;20.67;;;7.22;;
54167;SDS011;68429;50.958;3.592;2024-01-30T07:34:34;11.82;;;6.03;;
54167;SDS011;68429;50.958;3.592;2024-01-30T07:37:01;11.45;;;6.28;;
54167;SDS011;68429;50.958;3.592;2024-01-30T07:39:27;9.73;;;6.15;;
54167;SDS011;68429;50.958;3.592;2024-01-30T07:41:53;10.55;;;6.45;;
54167;SDS011;68429;50.958;3.592;2024-01-30T07:44:19;12.30;;;6.70;;
54167;SDS011;68429;50.958;3.592;2024-01-30T07:46:45;15.25;;;8.25;;
54167;SDS011;68429;50.958;3.592;2024-01-30T07:49:11;12.63;;;6.07;;
54167;SDS011;68429;50.958;3.592;2024-01-30T07:51:39;11.40;;;8.25;;
54167;SDS011;68429;50.958;3.592;2024-01-30T07:54:10;11.35;;;6.95;;
54167;SDS011;68429;50.958;3.592;2024-01-30T07:56:39;14.50;;;7.15;;
54167;SDS011;68429;50.958;3.592;2024-01-30T07:59:05;13.02;;;7.93;;
54167;SDS011;68429;50.958;3.592;2024-01-30T08:01:30;10.75;;;6.75;;
54167;SDS011;68429;50.958;3.592;2024-01-30T08:03:56;13.55;;;9.35;;
54167;SDS011;68429;50.958;3.592;2024-01-30T08:06:22;18.23;;;10.43;;
54167;SDS011;68429;50.958;3.592;2024-01-30T08:08:47;24.20;;;12.32;;
54167;SDS011;68429;50.958;3.592;2024-01-30T08:11:13;22.25;;;9.20;;
54167;SDS011;68429;50.958;3.592;2024-01-30T08:13:39;15.23;;;7.95;;
54167;SDS011;68429;50.958;3.592;2024-01-30T08:16:04;13.35;;;8.07;;
54167;SDS011;68429;50.958;3.592;2024-01-30T08:18:30;19.48;;;8.80;;
54167;SDS011;68429;50.958;3.592;2024-01-30T08:20:56;14.85;;;8.13;;
54167;SDS011;68429;50.958;3.592;2024-01-30T08:23:22;15.82;;;7.35;;
54167;SDS011;68429;50.958;3.592;2024-01-30T08:25:48;15.45;;;7.80;;
54167;SDS011;68429;50.958;3.592;2024-01-30T08:28:13;10.75;;;7.20;;
54167;SDS011;68429;50.958;3.592;2024-01-30T08:30:39;16.55;;;8.27;;
54167;SDS011;68429;50.958;3.592;2024-01-30T08:33:05;24.77;;;8.00;;
54167;SDS011;68429;50.958;3.592;2024-01-30T08:35:31;11.77;;;6.75;;
54167;SDS011;68429;50.958;3.592;2024-01-30T08:37:58;21.38;;;7.85;;
54167;SDS011;68429;50.958;3.592;2024-01-30T08:40:25;14.40;;;6.90;;
54167;SDS011;68429;50.958;3.592;2024-01-30T08:42:50;16.95;;;7.07;;
54167;SDS011;68429;50.958;3.592;2024-01-30T08:45:16;18.92;;;8.13;;
54167;SDS011;68429;50.958;3.592;2024-01-30T08:47:41;20.95;;;6.97;;
54167;SDS011;68429;50.958;3.592;2024-01-30T08:50:07;17.05;;;9.50;;
54167;SDS011;68429;50.958;3.592;2024-01-30T08:52:33;15.35;;;9.05;;
54167;SDS011;68429;50.958;3.592;2024-01-30T08:54:59;16.52;;;8.15;;
54167;SDS011;68429;50.958;3.592;2024-01-30T08:57:25;15.45;;;7.15;;
54167;SDS011;68429;50.958;3.592;2024-01-30T08:59:53;22.38;;;7.07;;
54167;SDS011;68429;50.958;3.592;2024-01-30T09:02:19;12.73;;;5.95;;
54167;SDS011;68429;50.958;3.592;2024-01-30T09:04:45;20.70;;;5.88;;
54167;SDS011;68429;50.958;3.592;2024-01-30T09:07:11;10.38;;;5.20;;
54167;SDS011;68429;50.958;3.592;2024-01-30T09:09:38;11.13;;;4.25;;
54167;SDS011;68429;50.958;3.592;2024-01-30T09:12:07;17.67;;;4.00;;
54167;SDS011;68429;50.958;3.592;2024-01-30T09:14:37;14.30;;;4.10;;
54167;SDS011;68429;50.958;3.592;2024-01-30T09:17:03;12.38;;;3.33;;
54167;SDS011;68429;50.958;3.592;2024-01-30T09:19:29;12.20;;;3.20;;
54167;SDS011;68429;50.958;3.592;2024-01-30T09:21:55;9.70;;;3.28;;
54167;SDS011;68429;50.958;3.592;2024-01-30T09:24:21;7.90;;;2.88;;
54167;SDS011;68429;50.958;3.592;2024-01-30T09:26:47;9.27;;;2.95;;
54167;SDS011;68429;50.958;3.592;2024-01-30T09:29:13;6.82;;;2.65;;
54167;SDS011;68429;50.958;3.592;2024-01-30T09:31:39;7.63;;;2.40;;
54167;SDS011;68429;50.958;3.592;2024-01-30T09:34:07;16.70;;;3.13;;
54167;SDS011;68429;50.958;3.592;2024-01-30T09:36:33;8.30;;;2.58;;
54167;SDS011;68429;50.958;3.592;2024-01-30T09:38:59;8.25;;;1.95;;
54167;SDS011;68429;50.958;3.592;2024-01-30T09:41:26;7.85;;;1.98;;
54167;SDS011;68429;50.958;3.592;2024-01-30T09:43:54;11.20;;;1.85;;
54167;SDS011;68429;50.958;3.592;2024-01-30T09:46:23;10.70;;;1.83;;
54167;SDS011;68429;50.958;3.592;2024-01-30T09:48:55;11.80;;;1.55;;
54167;SDS011;68429;50.958;3.592;2024-01-30T09:51:23;6.50;;;1.52;;
54167;SDS011;68429;50.958;3.592;2024-01-30T09:53:50;6.43;;;1.52;;
54167;SDS011;68429;50.958;3.592;2024-01-30T09:56:20;5.18;;;1.35;;
54167;SDS011;68429;50.958;3.592;2024-01-30T09:58:46;6.40;;;1.73;;
54167;SDS011;68429;50.958;3.592;2024-01-30T10:01:13;7.28;;;1.55;;
54167;SDS011;68429;50.958;3.592;2024-01-30T10:03:44;5.88;;;1.38;;
54167;SDS011;68429;50.958;3.592;2024-01-30T10:06:10;3.42;;;0.95;;
54167;SDS011;68429;50.958;3.592;2024-01-30T10:08:36;7.88;;;1.83;;
54167;SDS011;68429;50.958;3.592;2024-01-30T10:11:02;2.28;;;1.10;;
54167;SDS011;68429;50.958;3.592;2024-01-30T10:13:29;3.47;;;1.27;;
54167;SDS011;68429;50.958;3.592;2024-01-30T10:15:55;4.50;;;1.25;;
54167;SDS011;68429;50.958;3.592;2024-01-30T10:18:24;6.57;;;1.10;;
54167;SDS011;68429;50.958;3.592;2024-01-30T10:20:50;8.93;;;1.23;;
54167;SDS011;68429;50.958;3.592;2024-01-30T10:23:17;3.15;;;0.93;;
54167;SDS011;68429;50.958;3.592;2024-01-30T10:25:44;11.60;;;1.55;;
54167;SDS011;68429;50.958;3.592;2024-01-30T10:28:11;5.47;;;1.10;;
54167;SDS011;68429;50.958;3.592;2024-01-30T10:30:36;5.45;;;1.00;;
54167;SDS011;68429;50.958;3.592;2024-01-30T10:33:02;5.10;;;1.20;;
54167;SDS011;68429;50.958;3.592;2024-01-30T10:35:28;3.67;;;0.80;;
54167;SDS011;68429;50.958;3.592;2024-01-30T10:37:53;6.07;;;1.05;;
54167;SDS011;68429;50.958;3.592;2024-01-30T10:40:24;3.13;;;0.95;;
54167;SDS011;68429;50.958;3.592;2024-01-30T10:42:53;7.45;;;1.30;;
54167;SDS011;68429;50.958;3.592;2024-01-30T10:45:20;7.18;;;1.92;;
54167;SDS011;68429;50.958;3.592;2024-01-30T10:47:50;9.60;;;2.00;;
54167;SDS011;68429;50.958;3.592;2024-01-30T10:50:19;5.28;;;1.83;;
54167;SDS011;68429;50.958;3.592;2024-01-30T10:52:45;5.25;;;1.40;;
54167;SDS011;68429;50.958;3.592;2024-01-30T10:55:12;8.02;;;1.95;;
54167;SDS011;68429;50.958;3.592;2024-01-30T10:57:40;5.65;;;1.35;;
54167;SDS011;68429;50.958;3.592;2024-01-30T11:00:07;8.45;;;1.60;;
54167;SDS011;68429;50.958;3.592;2024-01-30T11:02:38;6.65;;;1.40;;
54167;SDS011;68429;50.958;3.592;2024-01-30T11:05:05;5.18;;;0.95;;
54167;SDS011;68429;50.958;3.592;2024-01-30T11:07:31;3.05;;;1.13;;
54167;SDS011;68429;50.958;3.592;2024-01-30T11:12:26;7.95;;;1.33;;
54167;SDS011;68429;50.958;3.592;2024-01-30T11:15:08;9.05;;;1.38;;
54167;SDS011;68429;50.958;3.592;2024-01-30T11:22:45;5.40;;;1.08;;
54167;SDS011;68429;50.958;3.592;2024-01-30T11:25:15;6.40;;;1.10;;
54167;SDS011;68429;50.958;3.592;2024-01-30T11:27:45;5.43;;;1.25;;
54167;SDS011;68429;50.958;3.592;2024-01-30T11:33:07;7.88;;;1.88;;
54167;SDS011;68429;50.958;3.592;2024-01-30T11:35:36;8.93;;;1.30;;
54167;SDS011;68429;50.958;3.592;2024-01-30T11:38:04;9.85;;;1.42;;
54167;SDS011;68429;50.958;3.592;2024-01-30T11:40:31;8.65;;;1.30;;
54167;SDS011;68429;50.958;3.592;2024-01-30T11:42:59;5.00;;;1.40;;
54167;SDS011;68429;50.958;3.592;2024-01-30T11:45:26;5.50;;;1.40;;
54167;SDS011;68429;50.958;3.592;2024-01-30T11:47:52;3.33;;;1.02;;
54167;SDS011;68429;50.958;3.592;2024-01-30T11:50:18;5.82;;;1.75;;
54167;SDS011;68429;50.958;3.592;2024-01-30T11:52:44;5.93;;;1.40;;
54167;SDS011;68429;50.958;3.592;2024-01-30T11:55:10;3.55;;;1.05;;
54167;SDS011;68429;50.958;3.592;2024-01-30T11:57:37;3.42;;;0.77;;
54167;SDS011;68429;50.958;3.592;2024-01-30T12:00:04;5.35;;;1.70;;
54167;SDS011;68429;50.958;3.592;2024-01-30T12:02:38;7.95;;;1.10;;
54167;SDS011;68429;50.958;3.592;2024-01-30T12:05:05;6.70;;;1.48;;
54167;SDS011;68429;50.958;3.592;2024-01-30T12:07:31;5.68;;;1.77;;
54167;SDS011;68429;50.958;3.592;2024-01-30T12:09:57;4.38;;;1.10;;
54167;SDS011;68429;50.958;3.592;2024-01-30T12:12:26;5.95;;;1.23;;
54167;SDS011;68429;50.958;3.592;2024-01-30T12:14:53;15.05;;;2.20;;
54167;SDS011;68429;50.958;3.592;2024-01-30T12:17:29;6.43;;;1.67;;
54167;SDS011;68429;50.958;3.592;2024-01-30T12:20:06;6.28;;;1.13;;
54167;SDS011;68429;50.958;3.592;2024-01-30T12:22:42;9.85;;;1.27;;
54167;SDS011;68429;50.958;3.592;2024-01-30T12:25:09;3.40;;;1.10;;
54167;SDS011;68429;50.958;3.592;2024-01-30T12:27:36;4.28;;;1.73;;
54167;SDS011;68429;50.958;3.592;2024-01-30T12:30:09;6.55;;;0.90;;
54167;SDS011;68429;50.958;3.592;2024-01-30T12:32:37;4.78;;;1.55;;
54167;SDS011;68429;50.958;3.592;2024-01-30T12:35:10;5.70;;;1.20;;
54167;SDS011;68429;50.958;3.592;2024-01-30T12:37:40;4.90;;;1.65;;
54167;SDS011;68429;50.958;3.592;2024-01-30T12:40:10;4.20;;;0.90;;
54167;SDS011;68429;50.958;3.592;2024-01-30T12:42:38;7.43;;;1.30;;
54167;SDS011;68429;50.958;3.592;2024-01-30T12:45:04;2.75;;;1.27;;
54167;SDS011;68429;50.958;3.592;2024-01-30T12:47:31;7.72;;;1.13;;
54167;SDS011;68429;50.958;3.592;2024-01-30T12:49:57;8.68;;;1.00;;
54167;SDS011;68429;50.958;3.592;2024-01-30T12:52:23;5.88;;;1.02;;
54167;SDS011;68429;50.958;3.592;2024-01-30T12:54:49;3.75;;;0.93;;
54167;SDS011;68429;50.958;3.592;2024-01-30T12:57:15;4.00;;;1.13;;
54167;SDS011;68429;50.958;3.592;2024-01-30T12:59:41;4.03;;;0.85;;
54167;SDS011;68429;50.958;3.592;2024-01-30T13:02:07;6.05;;;1.30;;
54167;SDS011;68429;50.958;3.592;2024-01-30T13:04:33;4.85;;;0.93;;
54167;SDS011;68429;50.958;3.592;2024-01-30T13:06:59;8.85;;;1.88;;
54167;SDS011;68429;50.958;3.592;2024-01-30T13:09:25;8.75;;;1.20;;
54167;SDS011;68429;50.958;3.592;2024-01-30T13:11:51;8.27;;;1.67;;
54167;SDS011;68429;50.958;3.592;2024-01-30T13:14:18;5.18;;;1.25;;
54167;SDS011;68429;50.958;3.592;2024-01-30T13:16:44;5.13;;;1.15;;
54167;SDS011;68429;50.958;3.592;2024-01-30T13:19:09;4.78;;;1.10;;
54167;SDS011;68429;50.958;3.592;2024-01-30T13:21:35;4.80;;;0.82;;
54167;SDS011;68429;50.958;3.592;2024-01-30T13:24:01;7.30;;;1.27;;
54167;SDS011;68429;50.958;3.592;2024-01-30T13:26:27;5.85;;;1.02;;
54167;SDS011;68429;50.958;3.592;2024-01-30T13:28:53;7.45;;;1.45;;
54167;SDS011;68429;50.958;3.592;2024-01-30T13:31:19;6.20;;;1.23;;
54167;SDS011;68429;50.958;3.592;2024-01-30T13:33:45;8.13;;;1.27;;
54167;SDS011;68429;50.958;3.592;2024-01-30T13:36:11;4.53;;;1.23;;
54167;SDS011;68429;50.958;3.592;2024-01-30T13:38:37;7.93;;;1.10;;
54167;SDS011;68429;50.958;3.592;2024-01-30T13:41:04;8.48;;;1.60;;
54167;SDS011;68429;50.958;3.592;2024-01-30T13:43:29;6.38;;;1.20;;
54167;SDS011;68429;50.958;3.592;2024-01-30T13:45:55;9.73;;;1.83;;
54167;SDS011;68429;50.958;3.592;2024-01-30T13:48:21;7.13;;;1.80;;
54167;SDS011;68429;50.958;3.592;2024-01-30T13:50:47;4.72;;;1.15;;
54167;SDS011;68429;50.958;3.592;2024-01-30T13:53:13;5.90;;;1.30;;
54167;SDS011;68429;50.958;3.592;2024-01-30T13:55:39;10.05;;;1.40;;
54167;SDS011;68429;50.958;3.592;2024-01-30T13:58:05;4.70;;;1.20;;
54167;SDS011;68429;50.958;3.592;2024-01-30T14:00:31;4.93;;;1.38;;
54167;SDS011;68429;50.958;3.592;2024-01-30T14:02:57;6.38;;;1.17;;
54167;SDS011;68429;50.958;3.592;2024-01-30T14:05:24;9.85;;;1.40;;
54167;SDS011;68429;50.958;3.592;2024-01-30T14:07:50;5.30;;;1.08;;
54167;SDS011;68429;50.958;3.592;2024-01-30T14:10:17;8.95;;;1.73;;
54167;SDS011;68429;50.958;3.592;2024-01-30T14:12:43;3.95;;;1.20;;
54167;SDS011;68429;50.958;3.592;2024-01-30T14:15:09;5.65;;;1.20;;
54167;SDS011;68429;50.958;3.592;2024-01-30T14:17:36;7.70;;;1.42;;
54167;SDS011;68429;50.958;3.592;2024-01-30T14:20:05;8.63;;;1.50;;
54167;SDS011;68429;50.958;3.592;2024-01-30T14:22:32;4.65;;;1.23;;
54167;SDS011;68429;50.958;3.592;2024-01-30T14:24:59;5.82;;;1.48;;
54167;SDS011;68429;50.958;3.592;2024-01-30T14:27:29;7.22;;;1.67;;
54167;SDS011;68429;50.958;3.592;2024-01-30T14:29:55;3.17;;;1.00;;
54167;SDS011;68429;50.958;3.592;2024-01-30T14:32:21;5.95;;;1.63;;
54167;SDS011;68429;50.958;3.592;2024-01-30T14:34:48;7.32;;;1.58;;
54167;SDS011;68429;50.958;3.592;2024-01-30T14:37:14;6.82;;;1.77;;
54167;SDS011;68429;50.958;3.592;2024-01-30T14:39:40;8.18;;;1.83;;
54167;SDS011;68429;50.958;3.592;2024-01-30T14:42:06;7.97;;;1.88;;
54167;SDS011;68429;50.958;3.592;2024-01-30T14:44:32;15.38;;;2.80;;
54167;SDS011;68429;50.958;3.592;2024-01-30T14:46:58;7.20;;;1.50;;
54167;SDS011;68429;50.958;3.592;2024-01-30T14:49:25;6.15;;;1.95;;